createdAt,value
2019-01-23T00:02:07.649Z,39.48
2019-01-23T00:04:34.517Z,38.28
2019-01-23T00:07:01.103Z,38.13
2019-01-23T00:09:27.966Z,41.45
2019-01-23T00:11:54.468Z,35.85
2019-01-23T00:14:20.994Z,41.40
2019-01-23T00:16:47.644Z,42.62
2019-01-23T00:19:14.537Z,35.68
2019-01-23T00:21:41.381Z,37.88
2019-01-23T00:24:07.786Z,40.48
2019-01-23T00:26:34.620Z,39.85
2019-01-23T00:29:01.381Z,37.00
2019-01-23T00:31:28.443Z,36.83
2019-01-23T00:33:55.526Z,36.30
2019-01-23T00:36:22.116Z,42.10
2019-01-23T00:38:49.334Z,36.80
2019-01-23T00:41:16.035Z,39.73
2019-01-23T00:43:42.817Z,43.78
2019-01-23T00:46:09.513Z,37.95
2019-01-23T00:48:36.123Z,45.23
2019-01-23T00:51:03.767Z,45.98
2019-01-23T00:53:30.446Z,45.00
2019-01-23T00:55:57.137Z,42.03
2019-01-23T00:58:23.566Z,44.08
2019-01-23T01:00:50.503Z,40.78
2019-01-23T01:03:17.029Z,43.42
2019-01-23T01:05:43.489Z,41.70
2019-01-23T01:08:10.276Z,42.43
2019-01-23T01:10:36.889Z,47.17
2019-01-23T01:13:03.640Z,45.63
2019-01-23T01:15:30.462Z,45.03
2019-01-23T01:17:57.670Z,40.90
2019-01-23T01:20:24.408Z,47.70
2019-01-23T01:22:50.877Z,41.15
2019-01-23T01:25:17.599Z,46.88
2019-01-23T01:27:47.750Z,46.55
2019-01-23T01:30:20.791Z,43.80
2019-01-23T01:32:47.629Z,47.65
2019-01-23T01:35:14.656Z,46.53
2019-01-23T01:37:41.542Z,46.45
2019-01-23T01:40:12.475Z,42.40
2019-01-23T01:42:39.185Z,46.02
2019-01-23T01:45:08.435Z,46.25
2019-01-23T01:47:35.279Z,50.63
2019-01-23T01:50:05.519Z,46.88
2019-01-23T01:52:32.779Z,44.23
2019-01-23T01:55:02.400Z,46.23
2019-01-23T01:57:29.153Z,45.35
2019-01-23T01:59:55.947Z,45.92
2019-01-23T02:02:22.423Z,46.73
2019-01-23T02:04:49.188Z,43.15
2019-01-23T02:07:16.023Z,50.45
2019-01-23T02:09:45.524Z,48.92
2019-01-23T02:12:12.573Z,51.98
2019-01-23T02:14:39.037Z,48.45
2019-01-23T02:17:05.754Z,49.80
2019-01-23T02:19:32.709Z,48.08
2019-01-23T02:21:59.378Z,47.43
2019-01-23T02:24:26.049Z,47.00
2019-01-23T02:26:52.466Z,52.67
2019-01-23T02:29:19.170Z,48.17
2019-01-23T02:31:45.780Z,49.35
2019-01-23T02:34:12.601Z,49.35
2019-01-23T02:36:39.271Z,47.90
2019-01-23T02:39:06.344Z,54.75
2019-01-23T02:41:33.800Z,50.45
2019-01-23T02:44:01.600Z,48.78
2019-01-23T02:46:28.248Z,51.75
2019-01-23T02:48:55.842Z,51.35
2019-01-23T02:51:22.436Z,45.88
2019-01-23T02:53:49.013Z,48.98
2019-01-23T02:56:15.735Z,49.45
2019-01-23T02:58:42.124Z,45.88
2019-01-23T03:01:08.783Z,48.80
2019-01-23T03:03:35.382Z,51.18
2019-01-23T03:06:01.942Z,50.63
2019-01-23T03:08:31.499Z,53.60
2019-01-23T03:11:00.993Z,54.58
2019-01-23T03:13:27.777Z,56.25
2019-01-23T03:15:54.289Z,49.50
2019-01-23T03:18:20.813Z,50.43
2019-01-23T03:20:47.230Z,51.42
2019-01-23T03:23:13.915Z,50.05
2019-01-23T03:25:40.525Z,55.15
2019-01-23T03:28:07.061Z,53.17
2019-01-23T03:30:34.022Z,56.08
2019-01-23T03:33:01.028Z,51.30
2019-01-23T03:35:27.767Z,56.98
2019-01-23T03:37:54.281Z,59.20
2019-01-23T03:40:21.570Z,46.95
2019-01-23T03:42:48.445Z,59.38
2019-01-23T03:45:16.490Z,53.15
2019-01-23T03:47:43.033Z,55.67
2019-01-23T03:50:12.431Z,52.08
2019-01-23T03:52:39.352Z,58.85
2019-01-23T03:55:09.400Z,51.85
2019-01-23T03:57:41.904Z,58.33
2019-01-23T04:00:16.490Z,48.95
2019-01-23T04:02:43.442Z,53.48
2019-01-23T04:05:10.905Z,54.15
2019-01-23T04:07:37.931Z,51.42
2019-01-23T04:10:17.996Z,58.20
2019-01-23T04:12:44.581Z,53.85
2019-01-23T04:15:32.839Z,63.45
2019-01-23T04:17:59.642Z,53.00
2019-01-23T04:20:26.248Z,54.88
2019-01-23T04:22:53.085Z,60.78
2019-01-23T04:25:19.609Z,69.22
2019-01-23T04:27:46.159Z,58.00
2019-01-23T04:30:21.508Z,61.18
2019-01-23T04:32:47.955Z,57.55
2019-01-23T04:35:14.408Z,56.30
2019-01-23T04:37:42.779Z,54.55
2019-01-23T04:40:11.399Z,52.50
2019-01-23T04:42:37.974Z,56.88
2019-01-23T04:45:08.334Z,61.80
2019-01-23T04:47:35.206Z,59.35
2019-01-23T04:50:02.053Z,56.90
2019-01-23T04:52:38.094Z,58.63
2019-01-23T04:55:06.287Z,59.00
2019-01-23T04:57:33.415Z,59.93
2019-01-23T05:00:00.026Z,57.70
2019-01-23T05:02:26.686Z,58.58
2019-01-23T05:04:53.391Z,58.90
2019-01-23T05:07:19.846Z,59.85
2019-01-23T05:09:49.730Z,57.43
2019-01-23T05:12:16.869Z,60.15
2019-01-23T05:14:43.332Z,56.50
2019-01-23T05:17:09.823Z,60.70
2019-01-23T05:19:36.459Z,58.38
2019-01-23T05:22:03.235Z,57.23
2019-01-23T05:24:29.841Z,56.58
2019-01-23T05:26:56.480Z,57.75
2019-01-23T05:29:22.813Z,64.03
2019-01-23T05:31:49.394Z,60.75
2019-01-23T05:34:17.218Z,58.10
2019-01-23T05:36:43.887Z,64.15
2019-01-23T05:39:10.996Z,55.15
2019-01-23T05:41:38.047Z,60.70
2019-01-23T05:44:05.075Z,63.87
2019-01-23T05:46:32.309Z,64.47
2019-01-23T05:48:59.634Z,62.10
2019-01-23T05:51:26.174Z,65.45
2019-01-23T05:53:52.539Z,66.20
2019-01-23T05:56:19.142Z,60.43
2019-01-23T05:58:46.242Z,57.30
2019-01-23T06:01:13.037Z,60.20
2019-01-23T06:03:39.557Z,61.70
2019-01-23T06:06:06.764Z,59.85
2019-01-23T06:08:33.293Z,58.23
2019-01-23T06:11:00.361Z,61.80
2019-01-23T06:13:27.510Z,62.90
2019-01-23T06:15:57.591Z,58.55
2019-01-23T06:18:23.869Z,58.42
2019-01-23T06:20:50.330Z,58.63
2019-01-23T06:23:16.792Z,62.40
2019-01-23T06:25:44.095Z,59.05
2019-01-23T06:28:11.165Z,62.20
2019-01-23T06:30:37.883Z,58.60
2019-01-23T06:33:04.569Z,69.70
2019-01-23T06:35:31.699Z,62.08
2019-01-23T06:37:58.052Z,62.83
2019-01-23T06:40:24.621Z,55.98
2019-01-23T06:42:51.074Z,59.58
2019-01-23T06:45:18.044Z,59.03
2019-01-23T06:47:45.864Z,62.45
2019-01-23T06:50:20.218Z,62.17
2019-01-23T06:52:46.784Z,57.45
2019-01-23T06:55:13.271Z,63.95
2019-01-23T06:57:40.154Z,53.42
2019-01-23T07:00:17.090Z,59.63
2019-01-23T07:02:41.706Z,56.28
2019-01-23T07:05:09.799Z,58.45
2019-01-23T07:07:36.462Z,57.20
2019-01-23T07:10:06.832Z,58.98
2019-01-23T07:12:33.921Z,61.75
2019-01-23T07:15:07.170Z,57.33
2019-01-23T07:17:34.274Z,63.02
2019-01-23T07:20:02.008Z,60.85
2019-01-23T07:22:28.965Z,57.88
2019-01-23T07:24:56.301Z,52.88
2019-01-23T07:27:22.814Z,59.13
2019-01-23T07:29:49.431Z,58.30
2019-01-23T07:32:16.126Z,62.48
2019-01-23T07:34:43.519Z,56.70
2019-01-23T07:37:10.158Z,56.08
2019-01-23T07:39:37.102Z,56.35
2019-01-23T07:42:04.840Z,57.67
2019-01-23T07:44:32.566Z,58.08
2019-01-23T07:46:59.585Z,60.35
2019-01-23T07:49:26.716Z,59.50
2019-01-23T07:51:53.319Z,62.05
2019-01-23T07:54:19.673Z,58.00
2019-01-23T07:56:47.131Z,62.03
2019-01-23T07:59:16.595Z,60.75
2019-01-23T08:01:43.267Z,60.45
2019-01-23T08:04:10.029Z,57.03
2019-01-23T08:06:37.003Z,56.10
2019-01-23T08:09:09.169Z,61.08
2019-01-23T08:11:35.982Z,55.40
2019-01-23T08:14:03.960Z,53.28
2019-01-23T08:16:31.431Z,61.65
2019-01-23T08:18:58.840Z,57.35
2019-01-23T08:21:25.795Z,59.42
2019-01-23T08:23:52.574Z,57.60
2019-01-23T08:26:18.909Z,56.90
2019-01-23T08:28:45.323Z,57.25
2019-01-23T08:31:12.336Z,56.00
2019-01-23T08:33:39.248Z,57.55
2019-01-23T08:36:06.080Z,64.03
2019-01-23T08:38:33.791Z,55.98
2019-01-23T08:41:00.857Z,50.92
2019-01-23T08:43:27.846Z,57.73
2019-01-23T08:45:54.749Z,58.05
2019-01-23T08:48:21.201Z,54.77
2019-01-23T08:50:48.054Z,57.85
2019-01-23T08:53:14.661Z,53.00
2019-01-23T08:55:41.744Z,56.25
2019-01-23T08:58:08.401Z,49.27
2019-01-23T09:00:35.460Z,54.13
2019-01-23T09:03:02.498Z,62.70
2019-01-23T09:05:30.102Z,51.65
2019-01-23T09:07:58.917Z,50.80
2019-01-23T09:10:27.689Z,56.42
2019-01-23T09:12:54.168Z,55.35
2019-01-23T09:15:26.611Z,57.67
2019-01-23T09:17:57.539Z,47.40
2019-01-23T09:20:28.898Z,55.33
2019-01-23T09:22:55.642Z,49.55
2019-01-23T09:25:28.446Z,70.95
2019-01-23T09:27:59.069Z,62.85
2019-01-23T09:30:36.977Z,53.33
2019-01-23T09:33:30.799Z,55.63
2019-01-23T09:36:16.498Z,58.63
2019-01-23T09:39:10.170Z,52.90
2019-01-23T09:41:46.506Z,60.33
2019-01-23T09:44:23.273Z,54.15
2019-01-23T09:47:03.275Z,54.30
2019-01-23T09:49:39.758Z,57.60
2019-01-23T09:52:36.292Z,62.80
2019-01-23T09:55:06.638Z,50.25
2019-01-23T09:57:33.323Z,56.35
2019-01-23T09:59:59.966Z,58.35
2019-01-23T10:02:26.707Z,57.25
2019-01-23T10:04:56.557Z,63.05
2019-01-23T10:07:23.139Z,59.03
2019-01-23T10:09:49.519Z,60.52
2019-01-23T10:12:15.912Z,57.73
2019-01-23T10:14:43.145Z,59.13
2019-01-23T10:17:10.244Z,60.60
2019-01-23T10:19:37.210Z,62.73
2019-01-23T10:22:03.864Z,58.08
2019-01-23T10:24:35.834Z,55.95
2019-01-23T10:26:59.072Z,63.02
2019-01-23T10:29:28.090Z,62.85
2019-01-23T10:31:54.658Z,60.23
2019-01-23T10:34:21.097Z,58.78
2019-01-23T10:36:47.792Z,60.63
2019-01-23T10:39:14.427Z,67.90
2019-01-23T10:41:41.054Z,63.08
2019-01-23T10:44:07.862Z,58.58
2019-01-23T10:46:34.522Z,63.73
2019-01-23T10:49:01.067Z,59.25
2019-01-23T10:51:27.619Z,55.78
2019-01-23T10:53:54.055Z,68.70
2019-01-23T10:56:20.989Z,60.70
2019-01-23T10:58:47.780Z,61.70
2019-01-23T11:01:14.432Z,57.88
2019-01-23T11:03:41.725Z,55.80
2019-01-23T11:06:09.082Z,60.83
2019-01-23T11:08:36.285Z,59.55
2019-01-23T11:11:04.708Z,65.78
2019-01-23T11:13:31.771Z,60.98
2019-01-23T11:15:59.195Z,64.45
2019-01-23T11:18:28.472Z,63.80
2019-01-23T11:20:55.097Z,60.50
2019-01-23T11:23:21.595Z,59.55
2019-01-23T11:25:49.034Z,62.03
2019-01-23T11:28:33.919Z,65.75
2019-01-23T11:31:01.068Z,54.93
2019-01-23T11:33:30.619Z,55.60
2019-01-23T11:35:57.286Z,62.43
2019-01-23T11:38:23.662Z,53.17
2019-01-23T11:40:50.377Z,55.12
2019-01-23T11:43:16.884Z,56.18
2019-01-23T11:45:44.236Z,56.65
2019-01-23T11:48:10.770Z,58.70
2019-01-23T11:50:37.499Z,59.75
2019-01-23T11:53:09.992Z,65.10
2019-01-23T11:55:39.864Z,54.35
2019-01-23T11:58:06.526Z,66.02
2019-01-23T12:00:35.531Z,68.25
2019-01-23T12:03:02.894Z,59.38
2019-01-23T12:05:29.730Z,60.67
2019-01-23T12:07:56.716Z,60.33
2019-01-23T12:10:24.026Z,57.03
2019-01-23T12:12:50.807Z,71.65
2019-01-23T12:15:19.318Z,66.40
2019-01-23T12:17:46.634Z,53.85
2019-01-23T12:20:15.794Z,60.67
2019-01-23T12:22:43.191Z,55.00
2019-01-23T12:25:12.661Z,56.25
2019-01-23T12:27:39.710Z,54.18
2019-01-23T12:30:15.522Z,53.30
2019-01-23T12:32:41.841Z,55.90
2019-01-23T12:35:09.347Z,62.73
2019-01-23T12:37:36.025Z,62.85
2019-01-23T12:40:06.176Z,59.50
2019-01-23T12:42:33.015Z,60.23
2019-01-23T12:45:00.470Z,63.05
2019-01-23T12:47:27.553Z,66.12
2019-01-23T12:49:54.035Z,65.90
2019-01-23T12:52:20.495Z,62.53
2019-01-23T12:54:49.378Z,64.32
2019-01-23T12:57:16.178Z,60.50
2019-01-23T12:59:42.917Z,64.97
2019-01-23T13:02:09.955Z,71.87
2019-01-23T13:04:36.503Z,59.05
2019-01-23T13:07:03.726Z,55.70
2019-01-23T13:09:50.080Z,62.75
2019-01-23T13:12:17.243Z,58.63
2019-01-23T13:14:44.382Z,62.85
2019-01-23T13:17:11.473Z,60.70
2019-01-23T13:19:38.285Z,66.80
2019-01-23T13:22:05.612Z,65.92
2019-01-23T13:24:32.780Z,62.03
2019-01-23T13:26:59.708Z,73.90
2019-01-23T13:29:27.784Z,63.02
2019-01-23T13:31:57.226Z,58.30
2019-01-23T13:34:23.728Z,61.30
2019-01-23T13:36:50.050Z,60.78
2019-01-23T13:39:16.562Z,55.65
2019-01-23T13:41:43.350Z,56.75
2019-01-23T13:44:09.882Z,59.93
2019-01-23T13:46:36.683Z,61.80
2019-01-23T13:49:03.829Z,59.53
2019-01-23T13:51:30.869Z,61.28
2019-01-23T13:54:01.207Z,66.97
2019-01-23T13:56:28.425Z,63.20
2019-01-23T13:58:54.868Z,55.70
2019-01-23T14:01:21.444Z,58.55
2019-01-23T14:03:48.074Z,62.15
2019-01-23T14:06:15.298Z,57.78
2019-01-23T14:08:42.388Z,58.35
2019-01-23T14:11:09.604Z,59.10
2019-01-23T14:13:36.317Z,55.25
2019-01-23T14:16:04.447Z,61.25
2019-01-23T14:18:31.788Z,59.60
2019-01-23T14:20:58.633Z,66.67
2019-01-23T14:23:25.427Z,60.98
2019-01-23T14:25:51.891Z,56.40
2019-01-23T14:28:19.945Z,62.35
2019-01-23T14:30:47.449Z,57.98
2019-01-23T14:33:15.308Z,59.27
2019-01-23T14:35:42.408Z,66.92
2019-01-23T14:38:09.198Z,66.90
2019-01-23T14:40:36.309Z,61.90
2019-01-23T14:43:03.893Z,61.80
2019-01-23T14:45:30.527Z,62.08
2019-01-23T14:47:57.274Z,62.13
2019-01-23T14:50:25.030Z,56.65
2019-01-23T14:52:51.861Z,56.88
2019-01-23T14:55:18.718Z,61.23
2019-01-23T14:57:45.499Z,66.07
2019-01-23T15:00:24.596Z,61.48
2019-01-23T15:02:51.362Z,56.45
2019-01-23T15:05:17.744Z,57.17
2019-01-23T15:07:44.733Z,53.92
2019-01-23T15:10:18.010Z,60.00
2019-01-23T15:12:44.651Z,72.30
2019-01-23T15:15:12.824Z,57.70
2019-01-23T15:17:40.112Z,64.35
2019-01-23T15:20:16.761Z,64.07
2019-01-23T15:22:43.442Z,66.50
2019-01-23T15:25:18.968Z,77.10
2019-01-23T15:27:45.598Z,64.47
2019-01-23T15:30:15.336Z,67.50
2019-01-23T15:32:45.151Z,62.27
2019-01-23T15:35:12.748Z,57.05
2019-01-23T15:37:39.308Z,59.63
2019-01-23T15:40:10.292Z,58.42
2019-01-23T15:42:37.265Z,70.40
2019-01-23T15:45:08.209Z,62.73
2019-01-23T15:47:34.887Z,61.70
2019-01-23T15:50:03.810Z,58.08
2019-01-23T15:52:30.924Z,62.05
2019-01-23T15:54:58.048Z,65.83
2019-01-23T15:57:24.386Z,60.08
2019-01-23T15:59:51.098Z,58.08
2019-01-23T16:02:24.125Z,59.30
2019-01-23T16:04:46.234Z,59.42
2019-01-23T16:07:13.006Z,64.90
2019-01-23T16:09:39.760Z,69.50
2019-01-23T16:12:07.840Z,55.98
2019-01-23T16:14:34.595Z,62.88
2019-01-23T16:17:02.427Z,78.60
2019-01-23T16:19:29.015Z,70.40
2019-01-23T16:21:56.045Z,58.95
2019-01-23T16:24:22.830Z,68.70
2019-01-23T16:26:49.875Z,67.27
2019-01-23T16:29:16.263Z,66.12
2019-01-23T16:31:42.976Z,69.12
2019-01-23T16:34:09.680Z,67.70
2019-01-23T16:36:36.879Z,69.80
2019-01-23T16:39:06.243Z,63.55
2019-01-23T16:41:32.721Z,62.20
2019-01-23T16:43:59.938Z,69.35
2019-01-23T16:46:26.601Z,63.92
2019-01-23T16:48:53.248Z,74.82
2019-01-23T16:51:25.844Z,65.97
2019-01-23T16:53:52.199Z,69.85
2019-01-23T16:56:18.914Z,69.30
2019-01-23T16:58:45.446Z,68.07
2019-01-23T17:01:12.279Z,64.30
2019-01-23T17:03:38.887Z,70.55
2019-01-23T17:06:05.728Z,63.48
2019-01-23T17:08:32.817Z,72.60
2019-01-23T17:10:59.657Z,67.17
2019-01-23T17:13:27.240Z,71.07
2019-01-23T17:15:54.472Z,66.15
2019-01-23T17:18:20.990Z,74.70
2019-01-23T17:20:48.074Z,70.52
2019-01-23T17:23:16.436Z,71.33
2019-01-23T17:25:43.123Z,73.00
2019-01-23T17:28:11.241Z,71.37
2019-01-23T17:30:38.173Z,77.42
2019-01-23T17:33:04.869Z,76.10
2019-01-23T17:35:31.678Z,68.78
2019-01-23T17:37:58.415Z,74.15
2019-01-23T17:40:25.848Z,71.65
2019-01-23T17:42:52.796Z,69.45
2019-01-23T17:45:30.209Z,71.25
2019-01-23T17:47:58.090Z,79.05
2019-01-23T17:50:24.796Z,91.00
2019-01-23T17:52:51.883Z,75.10
2019-01-23T17:55:28.866Z,75.62
2019-01-23T17:57:57.716Z,82.57
2019-01-23T18:00:32.575Z,69.05
2019-01-23T18:02:59.696Z,76.10
2019-01-23T18:05:28.193Z,86.67
2019-01-23T18:07:55.512Z,68.12
2019-01-23T18:10:27.432Z,83.27
2019-01-23T18:12:53.705Z,78.33
2019-01-23T18:15:23.518Z,77.50
2019-01-23T18:17:50.447Z,86.72
2019-01-23T18:20:23.123Z,90.87
2019-01-23T18:22:50.992Z,82.70
2019-01-23T18:25:26.990Z,86.40
2019-01-23T18:27:55.696Z,74.42
2019-01-23T18:30:53.358Z,94.05
2019-01-23T18:33:39.073Z,89.70
2019-01-23T18:36:18.745Z,84.60
2019-01-23T18:38:52.233Z,83.20
2019-01-23T18:41:56.174Z,89.03
2019-01-23T18:44:29.393Z,84.70
2019-01-23T18:47:20.393Z,99.77
2019-01-23T18:50:23.999Z,92.05
2019-01-23T18:52:50.849Z,93.82
2019-01-23T18:55:20.452Z,80.05
2019-01-23T18:57:47.260Z,85.95
2019-01-23T19:00:17.420Z,100.80
2019-01-23T19:02:44.317Z,88.40
2019-01-23T19:05:14.012Z,82.95
2019-01-23T19:07:40.798Z,81.97
2019-01-23T19:10:10.916Z,83.42
2019-01-23T19:12:37.545Z,102.25
2019-01-23T19:15:08.036Z,82.05
2019-01-23T19:17:34.675Z,91.97
2019-01-23T19:20:02.945Z,86.50
2019-01-23T19:22:30.248Z,96.50
2019-01-23T19:24:56.812Z,98.22
2019-01-23T19:27:23.705Z,86.55
2019-01-23T19:29:50.141Z,90.80
2019-01-23T19:32:17.082Z,87.15
2019-01-23T19:34:43.498Z,102.70
2019-01-23T19:37:09.998Z,87.97
2019-01-23T19:39:36.451Z,84.40
2019-01-23T19:42:06.376Z,96.40
2019-01-23T19:44:33.405Z,86.80
2019-01-23T19:47:00.213Z,89.03
2019-01-23T19:49:26.679Z,101.53
2019-01-23T19:51:56.477Z,91.37
2019-01-23T19:54:23.319Z,96.20
2019-01-23T19:56:52.584Z,91.25
2019-01-23T19:59:19.691Z,109.42
2019-01-23T20:01:46.540Z,97.20
2019-01-23T20:04:14.001Z,95.65
2019-01-23T20:06:40.374Z,93.80
2019-01-23T20:09:27.840Z,90.17
2019-01-23T20:11:55.338Z,99.60
2019-01-23T20:14:23.729Z,96.32
2019-01-23T20:16:52.967Z,92.57
2019-01-23T20:19:19.408Z,97.55
2019-01-23T20:21:45.868Z,88.37
2019-01-23T20:24:13.239Z,107.58
2019-01-23T20:26:40.107Z,113.30
2019-01-23T20:29:07.547Z,119.82
2019-01-23T20:31:34.381Z,113.32
2019-01-23T20:34:01.261Z,109.65
2019-01-23T20:36:31.242Z,96.72
2019-01-23T20:38:57.464Z,96.20
2019-01-23T20:41:26.344Z,97.92
2019-01-23T20:43:52.578Z,99.17
2019-01-23T20:46:22.723Z,92.40
2019-01-23T20:49:09.842Z,111.22
2019-01-23T20:51:40.064Z,118.93
2019-01-23T20:54:06.499Z,122.33
2019-01-23T20:56:35.140Z,97.60
2019-01-23T20:59:01.853Z,107.07
2019-01-23T21:01:28.061Z,99.67
2019-01-23T21:03:54.335Z,127.67
2019-01-23T21:06:24.000Z,121.55
2019-01-23T21:08:50.677Z,99.87
2019-01-23T21:11:17.452Z,129.03
2019-01-23T21:13:44.239Z,99.90
2019-01-23T21:16:10.856Z,114.03
2019-01-23T21:18:39.166Z,114.30
2019-01-23T21:21:06.211Z,105.70
2019-01-23T21:23:34.606Z,111.32
2019-01-23T21:26:01.029Z,120.05
2019-01-23T21:28:36.744Z,118.62
2019-01-23T21:31:03.704Z,122.15
2019-01-23T21:33:30.547Z,115.50
2019-01-23T21:35:58.396Z,136.62
2019-01-23T21:38:29.160Z,116.95
2019-01-23T21:40:55.600Z,98.27
2019-01-23T21:43:24.681Z,118.30
2019-01-23T21:45:51.278Z,124.40
2019-01-23T21:48:18.082Z,123.50
2019-01-23T21:50:44.607Z,112.60
2019-01-23T21:53:13.975Z,124.42
2019-01-23T21:55:42.022Z,121.53
2019-01-23T21:58:08.402Z,142.47
2019-01-23T22:00:38.082Z,123.55
2019-01-23T22:03:06.716Z,120.45
2019-01-23T22:05:33.235Z,118.08
2019-01-23T22:07:59.545Z,128.75
2019-01-23T22:10:26.000Z,131.37
2019-01-23T22:12:54.406Z,127.12
2019-01-23T22:15:28.628Z,133.93
2019-01-23T22:17:54.852Z,117.75
2019-01-23T22:20:22.047Z,134.05
2019-01-23T22:22:48.712Z,125.55
2019-01-23T22:25:17.354Z,132.82
2019-01-23T22:27:43.640Z,126.97
2019-01-23T22:30:25.259Z,130.43
2019-01-23T22:32:51.706Z,129.95
2019-01-23T22:35:18.295Z,114.30
2019-01-23T22:37:44.821Z,136.90
2019-01-23T22:40:16.914Z,134.70
2019-01-23T22:42:43.302Z,137.43
2019-01-23T22:45:12.594Z,132.80
2019-01-23T22:47:39.619Z,116.73
2019-01-23T22:50:12.607Z,132.75
2019-01-23T22:52:38.952Z,113.37
2019-01-23T22:55:07.127Z,121.85
2019-01-23T22:57:33.523Z,126.85
2019-01-23T22:59:59.982Z,134.07
2019-01-23T23:02:26.730Z,137.12
2019-01-23T23:04:53.474Z,116.33
2019-01-23T23:07:20.214Z,122.80
2019-01-23T23:09:46.866Z,118.60
2019-01-23T23:12:13.382Z,125.12
2019-01-23T23:14:39.791Z,125.25
2019-01-23T23:17:06.212Z,120.05
2019-01-23T23:19:33.103Z,118.13
2019-01-23T23:22:00.003Z,121.37
2019-01-23T23:24:26.481Z,125.38
2019-01-23T23:26:52.837Z,124.62
2019-01-23T23:29:20.241Z,127.87
2019-01-23T23:31:49.735Z,116.57
2019-01-23T23:34:16.322Z,125.85
2019-01-23T23:36:46.528Z,130.70
2019-01-23T23:39:12.961Z,126.62
2019-01-23T23:41:39.358Z,142.07
2019-01-23T23:44:06.248Z,112.90
2019-01-23T23:46:32.691Z,117.97
2019-01-23T23:48:59.246Z,118.65
2019-01-23T23:51:25.822Z,116.25
2019-01-23T23:53:52.907Z,122.00
2019-01-23T23:56:19.611Z,100.35
2019-01-23T23:58:47.542Z,116.70
